createdAt,value
2023-05-10T00:01:25.273Z,5.60
2023-05-10T00:05:07.865Z,5.65
2023-05-10T00:08:49.866Z,5.95
2023-05-10T00:12:31.772Z,5.90
2023-05-10T00:16:14.211Z,5.10
2023-05-10T00:19:56.199Z,4.90
2023-05-10T00:23:38.602Z,5.70
2023-05-10T00:27:20.621Z,5.88
2023-05-10T00:31:02.611Z,5.45
2023-05-10T00:34:44.548Z,6.35
2023-05-10T00:38:26.796Z,6.97
2023-05-10T00:42:08.771Z,6.47
2023-05-10T00:45:51.229Z,6.15
2023-05-10T00:49:33.256Z,6.75
2023-05-10T00:53:16.152Z,5.47
2023-05-10T00:56:58.411Z,5.25
2023-05-10T01:00:44.512Z,4.82
2023-05-10T01:04:26.763Z,4.40
2023-05-10T01:08:09.844Z,4.45
2023-05-10T01:11:51.864Z,3.75
2023-05-10T01:15:34.268Z,3.00
2023-05-10T01:19:25.955Z,2.75
2023-05-10T01:23:26.385Z,2.83
2023-05-10T01:27:45.940Z,3.20
2023-05-10T01:31:49.379Z,2.42
2023-05-10T01:35:42.867Z,2.03
2023-05-10T01:39:36.785Z,2.65
2023-05-10T01:43:24.184Z,2.72
2023-05-10T01:47:14.003Z,1.73
2023-05-10T01:50:57.734Z,2.20
2023-05-10T01:54:50.276Z,2.08
2023-05-10T01:58:34.837Z,2.17
2023-05-10T02:02:18.320Z,1.83
2023-05-10T02:06:00.781Z,1.83
2023-05-10T02:09:48.958Z,2.08
2023-05-10T02:13:35.500Z,1.90
2023-05-10T02:17:17.850Z,2.13
2023-05-10T02:21:01.277Z,1.75
2023-05-10T02:24:44.761Z,1.73
2023-05-10T02:28:27.964Z,1.85
2023-05-10T02:32:12.665Z,2.20
2023-05-10T02:35:55.651Z,1.90
2023-05-10T02:39:39.505Z,2.75
2023-05-10T02:43:23.508Z,3.22
2023-05-10T02:47:05.538Z,3.67
2023-05-10T02:50:52.512Z,3.50
2023-05-10T02:54:42.554Z,4.13
2023-05-10T02:58:24.557Z,3.42
2023-05-10T03:02:07.354Z,4.05
2023-05-10T03:05:49.269Z,3.45
2023-05-10T03:09:32.436Z,4.25
2023-05-10T03:13:33.808Z,4.22
2023-05-10T03:17:26.747Z,4.50
2023-05-10T03:21:13.380Z,4.20
2023-05-10T03:24:58.641Z,4.10
2023-05-10T03:28:41.342Z,3.92
2023-05-10T03:32:24.242Z,4.20
2023-05-10T03:36:06.393Z,4.20
2023-05-10T03:39:48.382Z,3.72
2023-05-10T03:43:30.504Z,4.03
2023-05-10T03:47:12.429Z,5.32
2023-05-10T03:50:54.353Z,5.40
2023-05-10T03:54:36.300Z,5.35
2023-05-10T03:58:18.280Z,5.43
2023-05-10T04:02:00.355Z,5.82
2023-05-10T04:05:42.355Z,6.18
2023-05-10T04:09:24.333Z,5.53
2023-05-10T04:13:06.355Z,5.93
2023-05-10T04:16:48.485Z,5.47
2023-05-10T04:20:30.478Z,5.00
2023-05-10T04:24:13.574Z,5.72
2023-05-10T04:27:55.571Z,5.88
2023-05-10T04:31:37.875Z,5.05
2023-05-10T04:35:19.805Z,5.80
2023-05-10T04:39:01.745Z,5.22
2023-05-10T04:42:45.059Z,6.13
2023-05-10T04:46:27.075Z,6.78
2023-05-10T04:50:09.401Z,7.20
2023-05-10T04:54:04.564Z,7.50
2023-05-10T04:57:47.833Z,7.10
2023-05-10T05:01:29.827Z,6.28
2023-05-10T05:05:11.894Z,6.45
2023-05-10T05:08:54.205Z,5.53
2023-05-10T05:12:36.570Z,5.65
2023-05-10T05:16:18.627Z,5.13
2023-05-10T05:20:00.564Z,5.32
2023-05-10T05:23:42.510Z,4.93
2023-05-10T05:27:25.473Z,4.70
2023-05-10T05:31:11.382Z,5.20
2023-05-10T05:34:53.426Z,4.50
2023-05-10T05:38:35.437Z,4.13
2023-05-10T05:42:18.806Z,3.83
2023-05-10T05:46:00.772Z,3.40
2023-05-10T05:49:42.800Z,3.15
2023-05-10T05:53:25.347Z,3.40
2023-05-10T05:57:07.496Z,2.83
2023-05-10T06:00:49.630Z,3.40
2023-05-10T06:04:31.634Z,2.72
2023-05-10T06:08:13.648Z,2.63
2023-05-10T06:11:55.567Z,2.45
2023-05-10T06:15:37.504Z,2.65
2023-05-10T06:19:19.512Z,2.58
2023-05-10T06:23:01.474Z,2.65
2023-05-10T06:26:43.388Z,1.80
2023-05-10T06:30:29.322Z,2.30
2023-05-10T06:34:12.760Z,2.15
2023-05-10T06:37:54.666Z,2.20
2023-05-10T06:41:36.668Z,2.15
2023-05-10T06:45:19.048Z,2.30
2023-05-10T06:49:01.198Z,1.60
2023-05-10T06:52:44.149Z,1.90
2023-05-10T06:56:26.192Z,1.70
2023-05-10T07:00:10.656Z,2.17
2023-05-10T07:03:53.209Z,2.15
2023-05-10T07:07:35.158Z,2.03
2023-05-10T07:11:17.387Z,2.22
2023-05-10T07:14:59.359Z,1.65
2023-05-10T07:18:41.366Z,1.77
2023-05-10T07:22:23.422Z,1.85
2023-05-10T07:26:05.434Z,1.70
2023-05-10T07:29:47.357Z,2.22
2023-05-10T07:33:29.297Z,1.73
2023-05-10T07:37:11.273Z,1.70
2023-05-10T07:40:53.274Z,1.67
2023-05-10T07:44:35.211Z,1.73
2023-05-10T07:48:17.124Z,1.63
2023-05-10T07:51:59.306Z,1.30
2023-05-10T07:55:41.363Z,1.90
2023-05-10T07:59:23.295Z,1.52
2023-05-10T08:03:05.322Z,1.98
2023-05-10T08:06:47.337Z,1.40
2023-05-10T08:10:29.426Z,1.45
2023-05-10T08:14:11.446Z,1.50
2023-05-10T08:17:53.801Z,1.95
2023-05-10T08:21:36.773Z,1.70
2023-05-10T08:25:19.072Z,2.00
2023-05-10T08:29:01.314Z,2.22
2023-05-10T08:32:43.273Z,2.03
2023-05-10T08:36:25.518Z,1.73
2023-05-10T08:40:08.307Z,2.17
2023-05-10T08:43:52.129Z,2.63
2023-05-10T08:47:36.003Z,2.35
2023-05-10T08:51:23.024Z,2.63
2023-05-10T08:55:05.245Z,2.13
2023-05-10T08:58:47.349Z,2.00
2023-05-10T09:02:29.435Z,1.95
2023-05-10T09:06:14.234Z,1.77
2023-05-10T09:09:56.625Z,1.98
2023-05-10T09:13:38.796Z,1.58
2023-05-10T09:17:21.250Z,2.00
2023-05-10T09:21:03.408Z,2.30
2023-05-10T09:24:46.410Z,2.72
2023-05-10T09:28:28.651Z,2.28
2023-05-10T09:32:10.575Z,1.50
2023-05-10T09:35:53.588Z,1.60
2023-05-10T09:39:39.449Z,2.22
2023-05-10T09:43:21.862Z,1.50
2023-05-10T09:47:04.258Z,1.90
2023-05-10T09:50:46.182Z,2.00
2023-05-10T09:54:28.168Z,1.60
2023-05-10T09:58:12.800Z,1.55
2023-05-10T10:01:58.214Z,1.40
2023-05-10T10:05:43.474Z,1.60
2023-05-10T10:09:26.185Z,1.40
2023-05-10T10:13:08.875Z,1.50
2023-05-10T10:17:05.721Z,1.55
2023-05-10T10:20:49.937Z,1.30
2023-05-10T10:24:32.009Z,1.80
2023-05-10T10:28:22.767Z,1.70
2023-05-10T10:32:27.561Z,1.25
2023-05-10T10:36:09.690Z,1.40
2023-05-10T10:39:51.757Z,1.50
2023-05-10T10:43:33.774Z,1.20
2023-05-10T10:47:19.842Z,1.15
2023-05-10T10:51:01.905Z,1.42
2023-05-10T10:54:52.361Z,1.33
2023-05-10T10:58:35.320Z,1.23
2023-05-10T11:02:42.571Z,1.40
2023-05-10T11:06:36.120Z,1.33
2023-05-10T11:10:22.002Z,1.42
2023-05-10T11:14:06.461Z,1.33
2023-05-10T11:17:53.162Z,1.42
2023-05-10T11:21:46.827Z,1.40
2023-05-10T11:25:29.317Z,1.20
2023-05-10T11:29:13.243Z,1.20
2023-05-10T11:32:55.272Z,1.30
2023-05-10T11:36:37.874Z,1.42
2023-05-10T11:40:20.250Z,1.27
2023-05-10T11:44:03.306Z,1.25
2023-05-10T11:47:45.396Z,1.30
2023-05-10T11:51:27.406Z,1.10
2023-05-10T11:55:09.532Z,1.10
2023-05-10T11:58:56.935Z,1.30
2023-05-10T12:02:39.224Z,1.10
2023-05-10T12:06:22.293Z,1.27
2023-05-10T12:10:09.556Z,0.77
2023-05-10T12:13:51.902Z,1.25
2023-05-10T12:17:33.963Z,1.00
2023-05-10T12:21:16.722Z,0.80
2023-05-10T12:25:00.160Z,0.93
2023-05-10T12:28:42.167Z,0.88
2023-05-10T12:32:39.791Z,1.00
2023-05-10T12:36:24.934Z,1.30
2023-05-10T12:40:09.319Z,0.80
2023-05-10T12:43:52.336Z,0.98
2023-05-10T12:47:34.497Z,1.00
2023-05-10T12:51:20.418Z,0.73
2023-05-10T12:55:04.185Z,0.70
2023-05-10T12:58:49.198Z,0.70
2023-05-10T13:02:31.342Z,0.57
2023-05-10T13:06:14.462Z,0.60
2023-05-10T13:09:56.487Z,0.70
2023-05-10T13:13:38.423Z,0.60
2023-05-10T13:17:20.432Z,0.77
2023-05-10T13:21:04.968Z,0.68
2023-05-10T13:24:46.942Z,0.43
2023-05-10T13:28:28.892Z,0.65
2023-05-10T13:32:11.075Z,0.40
2023-05-10T13:35:54.417Z,0.80
2023-05-10T13:39:38.664Z,0.35
2023-05-10T13:43:20.896Z,0.68
2023-05-10T13:47:02.900Z,0.38
2023-05-10T13:50:44.841Z,0.40
2023-05-10T13:54:30.470Z,0.70
2023-05-10T13:58:12.497Z,1.33
2023-05-10T14:01:54.572Z,0.47
2023-05-10T14:05:36.605Z,0.43
2023-05-10T14:09:18.519Z,0.50
2023-05-10T14:13:00.586Z,0.40
2023-05-10T14:16:46.165Z,0.40
2023-05-10T14:20:28.191Z,0.25
2023-05-10T14:24:10.249Z,0.50
2023-05-10T14:27:52.425Z,0.30
2023-05-10T14:31:34.397Z,0.30
2023-05-10T14:35:19.178Z,0.30
2023-05-10T14:39:01.724Z,0.30
2023-05-10T14:42:44.248Z,0.40
2023-05-10T14:46:26.252Z,0.40
2023-05-10T14:50:09.120Z,0.45
2023-05-10T14:53:51.078Z,0.60
2023-05-10T14:57:33.386Z,0.60
2023-05-10T15:01:15.358Z,0.45
2023-05-10T15:04:58.586Z,0.40
2023-05-10T15:08:40.835Z,0.30
2023-05-10T15:12:22.872Z,0.40
2023-05-10T15:16:04.960Z,0.43
2023-05-10T15:19:46.960Z,0.40
2023-05-10T15:23:29.872Z,0.35
2023-05-10T15:27:11.940Z,0.43
2023-05-10T15:30:53.986Z,0.38
2023-05-10T15:34:37.173Z,0.40
2023-05-10T15:38:19.260Z,0.32
2023-05-10T15:42:02.360Z,0.45
2023-05-10T15:45:44.513Z,0.38
2023-05-10T15:49:26.824Z,0.52
2023-05-10T15:53:08.824Z,0.65
2023-05-10T15:56:50.762Z,0.30
2023-05-10T16:00:32.749Z,0.40
2023-05-10T16:04:14.814Z,0.47
2023-05-10T16:07:56.800Z,0.30
2023-05-10T16:11:38.837Z,0.40
2023-05-10T16:15:21.985Z,0.40
2023-05-10T16:19:04.484Z,0.10
2023-05-10T16:22:46.586Z,0.40
2023-05-10T16:26:28.538Z,0.20
2023-05-10T16:30:10.778Z,0.40
2023-05-10T16:33:52.734Z,0.20
2023-05-10T16:37:34.818Z,0.30
2023-05-10T16:41:17.011Z,0.30
2023-05-10T16:44:59.059Z,0.50
2023-05-10T16:48:41.171Z,0.30
2023-05-10T16:52:23.980Z,0.60
2023-05-10T16:56:06.224Z,0.63
2023-05-10T16:59:48.450Z,0.30
2023-05-10T17:03:30.456Z,0.30
2023-05-10T17:07:13.345Z,0.40
2023-05-10T17:10:56.356Z,0.35
2023-05-10T17:14:38.631Z,0.32
2023-05-10T17:18:20.584Z,0.40
2023-05-10T17:22:02.555Z,0.43
2023-05-10T17:25:44.687Z,0.43
2023-05-10T17:29:28.515Z,0.40
2023-05-10T17:33:10.701Z,0.65
2023-05-10T17:36:52.753Z,0.60
2023-05-10T17:40:34.717Z,0.43
2023-05-10T17:44:16.705Z,0.70
2023-05-10T17:47:58.718Z,0.55
2023-05-10T17:51:44.072Z,0.50
2023-05-10T17:55:27.221Z,0.80
2023-05-10T17:59:09.224Z,0.30
2023-05-10T18:02:51.325Z,0.43
2023-05-10T18:06:37.254Z,0.50
2023-05-10T18:10:19.389Z,0.40
2023-05-10T18:14:01.320Z,0.50
2023-05-10T18:17:43.297Z,0.50
2023-05-10T18:21:25.269Z,0.70
2023-05-10T18:25:08.608Z,0.70
2023-05-10T18:28:50.610Z,0.93
2023-05-10T18:32:32.585Z,0.95
2023-05-10T18:36:14.900Z,0.55
2023-05-10T18:39:57.749Z,0.70
2023-05-10T18:43:39.750Z,0.73
2023-05-10T18:47:21.983Z,0.60
2023-05-10T18:51:04.353Z,0.63
2023-05-10T18:54:46.334Z,0.60
2023-05-10T18:58:28.964Z,0.57
2023-05-10T19:02:11.216Z,0.60
2023-05-10T19:05:53.265Z,0.70
2023-05-10T19:09:35.297Z,0.70
2023-05-10T19:13:17.671Z,0.70
2023-05-10T19:16:59.625Z,1.17
2023-05-10T19:20:42.561Z,0.90
2023-05-10T19:24:25.817Z,0.85
2023-05-10T19:28:09.596Z,0.90
2023-05-10T19:31:52.530Z,1.10
2023-05-10T19:35:34.673Z,1.15
2023-05-10T19:39:16.768Z,1.33
2023-05-10T19:42:58.724Z,1.50
2023-05-10T19:46:40.857Z,1.23
2023-05-10T19:50:22.883Z,1.23
2023-05-10T19:54:04.870Z,1.25
2023-05-10T19:57:46.963Z,1.40
2023-05-10T20:01:28.963Z,0.82
2023-05-10T20:05:11.010Z,1.48
2023-05-10T20:08:52.938Z,1.05
2023-05-10T20:12:34.885Z,1.20
2023-05-10T20:16:16.923Z,1.60
2023-05-10T20:19:58.901Z,1.42
2023-05-10T20:23:40.829Z,1.42
2023-05-10T20:27:22.749Z,1.52
2023-05-10T20:31:04.910Z,1.38
2023-05-10T20:34:46.887Z,1.55
2023-05-10T20:38:28.864Z,1.30
2023-05-10T20:42:10.826Z,1.50
2023-05-10T20:45:54.122Z,1.40
2023-05-10T20:49:37.961Z,1.60
2023-05-10T20:53:19.927Z,1.50
2023-05-10T20:57:02.169Z,1.55
2023-05-10T21:00:44.114Z,1.63
2023-05-10T21:04:26.129Z,1.88
2023-05-10T21:08:08.048Z,1.70
2023-05-10T21:11:50.769Z,1.60
2023-05-10T21:15:32.759Z,1.35
2023-05-10T21:19:17.045Z,1.30
2023-05-10T21:22:58.981Z,1.60
2023-05-10T21:26:41.040Z,1.40
2023-05-10T21:30:23.535Z,1.58
2023-05-10T21:34:05.526Z,1.40
2023-05-10T21:37:47.512Z,1.33
2023-05-10T21:41:29.460Z,1.92
2023-05-10T21:45:11.704Z,1.50
2023-05-10T21:48:54.076Z,1.52
2023-05-10T21:52:36.562Z,1.35
2023-05-10T21:56:18.494Z,1.45
2023-05-10T22:00:00.445Z,1.60
2023-05-10T22:03:42.504Z,1.30
2023-05-10T22:07:24.492Z,1.67
2023-05-10T22:11:06.433Z,1.55
2023-05-10T22:14:51.842Z,1.92
2023-05-10T22:18:41.537Z,1.35
2023-05-10T22:22:23.525Z,1.92
2023-05-10T22:26:05.525Z,1.55
2023-05-10T22:29:48.672Z,1.50
2023-05-10T22:33:30.607Z,1.40
2023-05-10T22:37:14.865Z,1.88
2023-05-10T22:40:57.282Z,1.42
2023-05-10T22:44:39.351Z,1.90
2023-05-10T22:48:22.144Z,1.60
2023-05-10T22:52:04.140Z,2.03
2023-05-10T22:55:47.151Z,1.80
2023-05-10T22:59:29.091Z,1.60
2023-05-10T23:03:11.067Z,1.65
2023-05-10T23:06:53.717Z,2.13
2023-05-10T23:10:37.876Z,1.48
2023-05-10T23:14:19.845Z,1.90
2023-05-10T23:18:02.219Z,1.95
2023-05-10T23:21:44.229Z,1.90
2023-05-10T23:25:27.574Z,1.92
2023-05-10T23:29:09.491Z,1.35
2023-05-10T23:32:51.440Z,1.42
2023-05-10T23:36:33.604Z,1.85
2023-05-10T23:40:16.401Z,1.40
2023-05-10T23:43:58.536Z,1.83
2023-05-10T23:47:40.593Z,1.92
2023-05-10T23:51:22.613Z,1.70
2023-05-10T23:55:04.797Z,1.80
2023-05-10T23:58:46.751Z,1.63
